createdAt,value
2022-11-05T00:01:08.623Z,8.15
2022-11-05T00:04:14.481Z,8.23
2022-11-05T00:07:22.293Z,8.35
2022-11-05T00:10:20.320Z,8.41
2022-11-05T00:13:26.412Z,8.11
2022-11-05T00:16:32.995Z,8.13
2022-11-05T00:19:19.239Z,7.94
2022-11-05T00:22:24.698Z,7.89
2022-11-05T00:25:17.009Z,7.79
2022-11-05T00:28:03.939Z,7.89
2022-11-05T00:30:49.893Z,7.55
2022-11-05T00:33:37.610Z,7.68
2022-11-05T00:36:23.531Z,7.61
2022-11-05T00:39:10.669Z,7.79
2022-11-05T00:42:16.756Z,7.70
2022-11-05T00:45:04.240Z,7.56
2022-11-05T00:48:09.798Z,7.46
2022-11-05T00:50:56.758Z,7.39
2022-11-05T00:53:44.983Z,7.27
2022-11-05T00:56:32.482Z,7.54
2022-11-05T00:59:19.111Z,7.41
2022-11-05T01:02:06.680Z,7.40
2022-11-05T01:04:52.782Z,7.35
2022-11-05T01:07:40.032Z,7.36
2022-11-05T01:10:28.653Z,7.34
2022-11-05T01:13:16.643Z,7.11
2022-11-05T01:16:07.225Z,7.16
2022-11-05T01:18:53.451Z,7.10
2022-11-05T01:21:39.842Z,7.05
2022-11-05T01:24:26.212Z,7.03
2022-11-05T01:27:12.035Z,7.06
2022-11-05T01:29:58.541Z,7.05
2022-11-05T01:32:44.534Z,7.10
2022-11-05T01:35:31.753Z,7.00
2022-11-05T01:38:18.313Z,7.21
2022-11-05T01:41:07.010Z,7.53
2022-11-05T01:43:54.709Z,7.26
2022-11-05T01:46:49.735Z,7.28
2022-11-05T01:49:35.810Z,7.25
2022-11-05T01:52:23.531Z,6.89
2022-11-05T01:55:11.404Z,7.13
2022-11-05T01:57:57.682Z,7.14
2022-11-05T02:00:48.648Z,6.94
2022-11-05T02:03:35.809Z,7.48
2022-11-05T02:06:24.663Z,7.02
2022-11-05T02:09:34.310Z,7.37
2022-11-05T02:12:20.839Z,7.23
2022-11-05T02:15:12.811Z,7.14
2022-11-05T02:17:59.660Z,7.20
2022-11-05T02:21:04.146Z,7.24
2022-11-05T02:23:56.534Z,7.42
2022-11-05T02:26:45.399Z,7.03
2022-11-05T02:29:40.206Z,7.20
2022-11-05T02:32:26.223Z,6.85
2022-11-05T02:35:30.719Z,7.28
2022-11-05T02:38:20.339Z,6.83
2022-11-05T02:41:06.781Z,6.75
2022-11-05T02:43:58.961Z,6.92
2022-11-05T02:46:51.846Z,6.92
2022-11-05T02:49:47.485Z,6.76
2022-11-05T02:52:43.272Z,6.79
2022-11-05T02:55:43.272Z,6.78
2022-11-05T02:58:29.176Z,7.19
2022-11-05T03:01:17.127Z,7.58
2022-11-05T03:04:05.336Z,7.35
2022-11-05T03:06:55.963Z,7.03
2022-11-05T03:09:53.776Z,6.94
2022-11-05T03:12:43.582Z,6.98
2022-11-05T03:15:46.863Z,6.82
2022-11-05T03:18:35.946Z,6.88
2022-11-05T03:21:36.384Z,7.12
2022-11-05T03:24:26.806Z,7.09
2022-11-05T03:27:14.629Z,7.09
2022-11-05T03:30:01.715Z,7.02
2022-11-05T03:32:49.345Z,6.88
2022-11-05T03:35:37.072Z,7.12
2022-11-05T03:38:26.911Z,6.96
2022-11-05T03:41:13.680Z,6.99
2022-11-05T03:44:03.093Z,7.09
2022-11-05T03:46:49.891Z,7.14
2022-11-05T03:49:38.347Z,7.03
2022-11-05T03:52:25.553Z,7.14
2022-11-05T03:55:12.027Z,6.77
2022-11-05T03:57:58.426Z,6.82
2022-11-05T04:00:45.376Z,6.86
2022-11-05T04:03:36.479Z,7.23
2022-11-05T04:06:42.445Z,7.03
2022-11-05T04:09:47.585Z,7.20
2022-11-05T04:12:52.515Z,7.10
2022-11-05T04:15:58.906Z,6.98
2022-11-05T04:18:45.027Z,7.01
2022-11-05T04:21:50.204Z,6.92
2022-11-05T04:24:36.561Z,6.75
2022-11-05T04:27:23.796Z,6.89
2022-11-05T04:30:18.903Z,6.67
2022-11-05T04:33:12.801Z,6.60
2022-11-05T04:36:00.356Z,6.68
2022-11-05T04:38:50.264Z,6.90
2022-11-05T04:41:36.057Z,6.71
2022-11-05T04:44:22.883Z,6.73
2022-11-05T04:47:08.685Z,6.80
2022-11-05T04:49:55.044Z,6.50
2022-11-05T04:52:44.823Z,6.59
2022-11-05T04:55:31.344Z,6.77
2022-11-05T04:58:20.975Z,6.79
2022-11-05T05:01:07.829Z,7.02
2022-11-05T05:03:54.323Z,7.09
2022-11-05T05:06:41.941Z,6.74
2022-11-05T05:09:28.086Z,6.78
2022-11-05T05:12:14.353Z,6.72
2022-11-05T05:15:00.255Z,7.03
2022-11-05T05:17:53.175Z,6.90
2022-11-05T05:20:58.030Z,6.75
2022-11-05T05:23:44.828Z,6.59
2022-11-05T05:26:31.065Z,7.07
2022-11-05T05:29:21.605Z,6.82
2022-11-05T05:32:07.613Z,7.08
2022-11-05T05:34:57.606Z,7.06
2022-11-05T05:37:44.446Z,7.09
2022-11-05T05:40:30.944Z,7.02
2022-11-05T05:43:17.124Z,7.08
2022-11-05T05:46:07.782Z,7.37
2022-11-05T05:48:56.803Z,7.10
2022-11-05T05:51:50.605Z,6.69
2022-11-05T05:54:42.324Z,7.15
2022-11-05T05:57:30.355Z,6.94
2022-11-05T06:00:18.058Z,7.02
2022-11-05T06:03:10.157Z,6.86
2022-11-05T06:06:06.593Z,7.33
2022-11-05T06:08:58.575Z,7.31
2022-11-05T06:11:49.618Z,7.41
2022-11-05T06:14:47.860Z,7.11
2022-11-05T06:17:35.284Z,7.32
2022-11-05T06:20:22.336Z,7.06
2022-11-05T06:23:08.921Z,7.06
2022-11-05T06:25:59.029Z,7.02
2022-11-05T06:28:48.605Z,7.29
2022-11-05T06:31:38.437Z,7.06
2022-11-05T06:34:25.755Z,7.29
2022-11-05T06:37:13.736Z,7.14
2022-11-05T06:40:01.824Z,7.37
2022-11-05T06:42:51.827Z,7.09
2022-11-05T06:45:41.562Z,7.27
2022-11-05T06:48:29.617Z,6.98
2022-11-05T06:51:16.093Z,7.50
2022-11-05T06:54:04.004Z,7.06
2022-11-05T06:56:58.660Z,7.39
2022-11-05T07:00:07.313Z,7.48
2022-11-05T07:03:06.610Z,7.44
2022-11-05T07:05:57.784Z,7.59
2022-11-05T07:08:45.928Z,7.50
2022-11-05T07:11:34.026Z,7.45
2022-11-05T07:14:21.669Z,7.30
2022-11-05T07:17:20.042Z,7.46
2022-11-05T07:20:16.449Z,7.41
2022-11-05T07:23:07.843Z,7.63
2022-11-05T07:25:55.129Z,7.75
2022-11-05T07:28:43.037Z,7.44
2022-11-05T07:31:33.151Z,7.76
2022-11-05T07:34:33.615Z,7.72
2022-11-05T07:37:19.868Z,7.99
2022-11-05T07:40:07.818Z,7.75
2022-11-05T07:43:01.613Z,7.73
2022-11-05T07:45:54.613Z,7.86
2022-11-05T07:48:43.603Z,7.67
2022-11-05T07:51:34.607Z,7.65
2022-11-05T07:54:26.680Z,7.79
2022-11-05T07:57:20.925Z,7.94
2022-11-05T08:03:19.372Z,7.96
2022-11-05T08:06:12.591Z,8.15
2022-11-05T08:09:10.603Z,8.39
2022-11-05T08:12:02.684Z,8.33
2022-11-05T08:14:52.054Z,8.63
2022-11-05T08:17:49.633Z,8.78
2022-11-05T08:20:38.771Z,8.49
2022-11-05T08:23:28.593Z,8.34
2022-11-05T08:26:27.568Z,8.44
2022-11-05T08:29:16.010Z,8.28
2022-11-05T08:32:02.941Z,8.46
2022-11-05T08:34:58.611Z,8.50
2022-11-05T08:38:06.616Z,8.88
2022-11-05T08:40:54.892Z,8.40
2022-11-05T08:43:43.634Z,8.57
2022-11-05T08:46:41.525Z,8.95
2022-11-05T08:49:31.001Z,8.47
2022-11-05T08:52:19.874Z,8.91
2022-11-05T08:55:12.505Z,8.63
2022-11-05T08:58:13.614Z,8.94
2022-11-05T09:01:11.877Z,9.14
2022-11-05T09:04:12.573Z,9.01
2022-11-05T09:06:59.981Z,8.93
2022-11-05T09:09:46.831Z,8.83
2022-11-05T09:12:41.690Z,8.80
2022-11-05T09:15:29.099Z,8.99
2022-11-05T09:18:17.558Z,9.18
2022-11-05T09:21:04.352Z,9.21
2022-11-05T09:23:59.121Z,9.05
2022-11-05T09:26:48.471Z,8.90
2022-11-05T09:29:39.994Z,9.10
2022-11-05T09:32:35.995Z,8.93
2022-11-05T09:35:23.206Z,9.01
2022-11-05T09:38:21.184Z,9.02
2022-11-05T09:41:13.055Z,9.12
2022-11-05T09:44:02.909Z,8.85
2022-11-05T09:47:09.656Z,9.02
2022-11-05T09:49:56.472Z,9.14
2022-11-05T09:52:47.541Z,9.33
2022-11-05T09:55:51.619Z,9.54
2022-11-05T09:58:44.629Z,9.51
2022-11-05T10:01:38.753Z,9.53
2022-11-05T10:04:27.601Z,9.49
2022-11-05T10:07:17.557Z,9.56
2022-11-05T10:10:05.524Z,9.87
2022-11-05T10:12:58.128Z,9.74
2022-11-05T10:16:06.869Z,9.69
2022-11-05T10:22:12.683Z,9.72
2022-11-05T10:25:01.814Z,10.12
2022-11-05T10:27:50.939Z,9.76
2022-11-05T10:30:37.743Z,9.95
2022-11-05T10:39:27.956Z,9.83
2022-11-05T10:42:21.910Z,9.91
2022-11-05T10:45:34.795Z,9.85
2022-11-05T10:51:36.595Z,9.86
2022-11-05T10:54:38.157Z,10.02
2022-11-05T10:57:47.710Z,10.44
2022-11-05T11:00:36.794Z,9.97
2022-11-05T11:03:40.989Z,10.31
2022-11-05T11:06:31.635Z,9.86
2022-11-05T11:09:24.359Z,10.01
2022-11-05T11:12:17.144Z,10.16
2022-11-05T11:15:17.710Z,9.96
2022-11-05T11:18:27.937Z,10.30
2022-11-05T11:21:23.360Z,10.46
2022-11-05T11:24:19.697Z,10.06
2022-11-05T11:27:14.133Z,9.96
2022-11-05T11:33:08.341Z,10.22
2022-11-05T11:36:11.909Z,10.31
2022-11-05T11:39:06.625Z,10.27
2022-11-05T11:41:58.743Z,10.43
2022-11-05T11:44:47.032Z,10.21
2022-11-05T11:47:35.003Z,10.42
2022-11-05T11:50:42.781Z,10.79
2022-11-05T11:53:42.659Z,10.77
2022-11-05T11:56:43.970Z,10.76
2022-11-05T12:00:07.077Z,10.76
2022-11-05T12:03:12.214Z,10.75
2022-11-05T12:06:16.598Z,10.64
2022-11-05T12:09:19.793Z,10.52
2022-11-05T12:15:12.129Z,10.89
2022-11-05T12:18:01.716Z,10.91
2022-11-05T12:21:10.589Z,10.97
2022-11-05T12:24:14.569Z,10.80
2022-11-05T12:27:16.708Z,10.69
2022-11-05T12:30:18.620Z,10.89
2022-11-05T12:33:19.277Z,10.98
2022-11-05T12:36:32.058Z,10.71
2022-11-05T12:39:28.865Z,10.68
2022-11-05T12:42:30.914Z,11.08
2022-11-05T12:45:20.617Z,11.17
2022-11-05T12:48:36.908Z,10.96
2022-11-05T12:51:44.538Z,11.17
2022-11-05T12:54:48.422Z,10.90
2022-11-05T13:00:35.861Z,11.15
2022-11-05T13:03:29.544Z,10.92
2022-11-05T13:06:32.005Z,11.21
2022-11-05T13:09:29.577Z,11.02
2022-11-05T13:12:25.361Z,10.88
2022-11-05T13:18:33.745Z,11.33
2022-11-05T13:21:21.015Z,11.42
2022-11-05T13:24:21.503Z,10.88
2022-11-05T13:27:38.543Z,11.05
2022-11-05T13:30:34.210Z,10.98
2022-11-05T13:33:24.553Z,10.85
2022-11-05T13:36:48.016Z,10.73
2022-11-05T13:39:43.552Z,11.52
2022-11-05T13:42:36.271Z,11.03
2022-11-05T13:45:24.514Z,10.65
2022-11-05T13:48:24.729Z,10.85
2022-11-05T13:51:17.879Z,10.70
2022-11-05T13:54:12.728Z,10.84
2022-11-05T13:57:06.788Z,10.67
2022-11-05T13:59:55.468Z,10.74
2022-11-05T14:02:45.815Z,10.80
2022-11-05T14:05:38.673Z,10.58
2022-11-05T14:08:29.875Z,10.84
2022-11-05T14:11:27.643Z,11.32
2022-11-05T14:14:20.761Z,10.90
2022-11-05T14:17:07.608Z,10.66
2022-11-05T14:20:05.096Z,10.89
2022-11-05T14:22:54.068Z,10.51
2022-11-05T14:25:42.041Z,11.07
2022-11-05T14:28:36.472Z,11.28
2022-11-05T14:32:07.877Z,11.57
2022-11-05T14:35:01.856Z,10.75
2022-11-05T14:37:55.522Z,10.96
2022-11-05T14:40:46.543Z,10.43
2022-11-05T14:43:37.561Z,10.94
2022-11-05T14:46:26.661Z,10.51
2022-11-05T14:49:18.932Z,10.66
2022-11-05T14:52:06.822Z,10.56
2022-11-05T14:54:59.507Z,10.37
2022-11-05T14:57:55.047Z,10.65
2022-11-05T15:00:48.732Z,10.42
2022-11-05T15:04:01.889Z,10.25
2022-11-05T15:07:01.824Z,10.45
2022-11-05T15:09:54.489Z,10.21
2022-11-05T15:13:00.587Z,10.38
2022-11-05T15:15:57.031Z,10.32
2022-11-05T15:18:51.575Z,10.58
2022-11-05T15:21:45.573Z,10.93
2022-11-05T15:24:35.583Z,10.29
2022-11-05T15:27:31.829Z,10.34
2022-11-05T15:30:20.069Z,10.37
2022-11-05T15:33:20.827Z,9.97
2022-11-05T15:36:15.608Z,10.06
2022-11-05T15:39:28.539Z,10.26
2022-11-05T15:42:23.046Z,9.98
2022-11-05T15:45:19.869Z,10.03
2022-11-05T15:48:16.653Z,10.29
2022-11-05T15:51:11.827Z,10.06
2022-11-05T15:54:28.936Z,9.99
2022-11-05T15:57:26.707Z,9.79
2022-11-05T16:00:18.832Z,9.72
2022-11-05T16:03:18.678Z,9.79
2022-11-05T16:06:11.235Z,9.82
2022-11-05T16:12:16.859Z,9.91
2022-11-05T16:15:08.737Z,9.90
2022-11-05T16:17:55.802Z,9.49
2022-11-05T16:21:04.537Z,9.69
2022-11-05T16:24:05.343Z,9.66
2022-11-05T16:27:05.856Z,9.57
2022-11-05T16:29:55.531Z,9.64
2022-11-05T16:32:46.823Z,9.57
2022-11-05T16:35:51.804Z,9.38
2022-11-05T16:38:45.569Z,9.55
2022-11-05T16:41:35.910Z,9.75
2022-11-05T16:44:29.763Z,9.46
2022-11-05T16:47:26.577Z,9.48
2022-11-05T16:50:19.841Z,9.64
2022-11-05T16:53:07.514Z,9.56
2022-11-05T16:56:01.407Z,9.79
2022-11-05T16:59:06.632Z,9.38
2022-11-05T17:01:55.969Z,9.50
2022-11-05T17:04:43.732Z,9.49
2022-11-05T17:07:41.528Z,9.69
2022-11-05T17:10:29.046Z,10.35
2022-11-05T17:13:26.745Z,11.03
2022-11-05T17:16:14.336Z,10.02
2022-11-05T17:22:17.612Z,10.32
2022-11-05T17:25:08.948Z,9.82
2022-11-05T17:28:02.723Z,9.66
2022-11-05T17:30:53.142Z,9.56
2022-11-05T17:33:47.948Z,8.85
2022-11-05T17:36:38.611Z,9.06
2022-11-05T17:39:31.258Z,9.46
2022-11-05T17:42:26.568Z,9.16
2022-11-05T17:45:18.815Z,8.72
2022-11-05T17:48:09.636Z,8.76
2022-11-05T17:51:07.705Z,9.16
2022-11-05T17:53:57.464Z,9.22
2022-11-05T17:56:57.880Z,8.68
2022-11-05T17:59:58.652Z,9.02
2022-11-05T18:05:52.730Z,8.85
2022-11-05T18:08:39.701Z,9.27
2022-11-05T18:11:30.022Z,8.95
2022-11-05T18:14:25.574Z,8.92
2022-11-05T18:17:19.541Z,8.67
2022-11-05T18:20:11.608Z,8.49
2022-11-05T18:23:02.987Z,8.85
2022-11-05T18:25:50.899Z,9.29
2022-11-05T18:28:38.851Z,9.75
2022-11-05T18:31:41.566Z,9.80
2022-11-05T18:34:29.893Z,9.94
2022-11-05T18:37:24.560Z,10.68
2022-11-05T18:40:16.851Z,10.73
2022-11-05T18:43:15.706Z,10.97
2022-11-05T18:46:03.719Z,10.52
2022-11-05T18:48:50.534Z,10.10
2022-11-05T18:54:40.798Z,10.07
2022-11-05T18:57:29.548Z,9.58
2022-11-05T19:00:17.246Z,9.66
2022-11-05T19:03:06.011Z,9.72
2022-11-05T19:05:54.725Z,9.29
2022-11-05T19:08:53.872Z,9.45
2022-11-05T19:14:38.665Z,9.17
2022-11-05T19:17:30.838Z,9.29
2022-11-05T19:20:37.586Z,9.95
2022-11-05T19:23:28.610Z,9.61
2022-11-05T19:29:18.343Z,9.78
2022-11-05T19:35:14.597Z,9.50
2022-11-05T19:38:12.044Z,9.16
2022-11-05T19:44:05.582Z,9.21
2022-11-05T19:46:57.371Z,9.33
2022-11-05T19:49:51.197Z,9.08
2022-11-05T19:52:39.306Z,8.68
2022-11-05T19:55:39.652Z,9.51
2022-11-05T19:58:29.839Z,8.59
2022-11-05T20:01:21.715Z,8.35
2022-11-05T20:04:15.564Z,8.68
2022-11-05T20:09:58.023Z,8.83
2022-11-05T20:12:53.093Z,9.22
2022-11-05T20:18:47.983Z,9.21
2022-11-05T20:21:37.996Z,8.69
2022-11-05T20:24:25.766Z,9.23
2022-11-05T20:27:11.921Z,9.95
2022-11-05T20:30:11.560Z,9.83
2022-11-05T20:33:08.894Z,9.75
2022-11-05T20:36:02.552Z,9.46
2022-11-05T20:38:58.082Z,9.48
2022-11-05T20:41:48.563Z,9.97
2022-11-05T20:44:52.703Z,9.57
2022-11-05T20:47:40.582Z,8.90
2022-11-05T20:50:29.669Z,9.69
2022-11-05T20:53:25.902Z,8.92
2022-11-05T20:56:22.850Z,8.78
2022-11-05T20:59:17.863Z,9.79
2022-11-05T21:08:05.514Z,9.86
2022-11-05T21:10:54.113Z,10.04
2022-11-05T21:13:43.748Z,10.00
2022-11-05T21:16:41.069Z,9.28
2022-11-05T21:19:32.527Z,8.91
2022-11-05T21:22:21.534Z,9.35
2022-11-05T21:25:08.607Z,8.74
2022-11-05T21:27:56.323Z,8.87
2022-11-05T21:31:00.514Z,9.23
2022-11-05T21:33:55.261Z,9.23
2022-11-05T21:36:43.891Z,9.02
2022-11-05T21:39:36.825Z,8.69
2022-11-05T21:42:26.691Z,9.34
2022-11-05T21:45:23.452Z,8.88
2022-11-05T21:48:15.868Z,8.60
2022-11-05T21:51:29.480Z,8.48
2022-11-05T21:54:35.606Z,8.30
2022-11-05T21:57:43.512Z,8.40
2022-11-05T22:00:30.088Z,8.37
2022-11-05T22:03:17.081Z,8.51
2022-11-05T22:06:11.197Z,8.70
2022-11-05T22:08:57.668Z,8.95
2022-11-05T22:11:44.175Z,8.86
2022-11-05T22:14:30.900Z,8.80
2022-11-05T22:17:18.387Z,9.06
2022-11-05T22:20:08.478Z,8.89
2022-11-05T22:22:55.096Z,8.62
2022-11-05T22:25:41.696Z,8.73
2022-11-05T22:28:27.712Z,8.77
2022-11-05T22:31:18.200Z,8.70
2022-11-05T22:34:06.665Z,8.60
2022-11-05T22:36:54.458Z,8.50
2022-11-05T22:39:48.869Z,8.27
2022-11-05T22:42:34.961Z,8.48
2022-11-05T22:45:21.776Z,8.24
2022-11-05T22:48:10.384Z,8.33
2022-11-05T22:51:06.738Z,8.31
2022-11-05T22:53:57.310Z,8.21
2022-11-05T22:56:47.721Z,8.06
2022-11-05T22:59:38.524Z,8.49
2022-11-05T23:02:26.662Z,8.14
2022-11-05T23:05:15.902Z,8.24
2022-11-05T23:08:20.770Z,8.22
2022-11-05T23:11:28.334Z,9.00
2022-11-05T23:14:15.959Z,8.79
2022-11-05T23:17:21.561Z,8.63
2022-11-05T23:20:27.681Z,8.74
2022-11-05T23:23:32.813Z,8.92
2022-11-05T23:26:37.811Z,8.92
2022-11-05T23:29:29.442Z,8.88
2022-11-05T23:32:24.337Z,8.95
2022-11-05T23:35:11.823Z,9.08
2022-11-05T23:38:16.619Z,9.73
2022-11-05T23:41:22.844Z,8.68
2022-11-05T23:44:29.522Z,8.90
2022-11-05T23:47:36.521Z,9.08
2022-11-05T23:50:22.867Z,8.77
2022-11-05T23:53:10.117Z,8.61
2022-11-05T23:56:09.368Z,9.12
2022-11-05T23:58:57.103Z,9.06
